sensor_id;sensor_type;location;lat;lon;timestamp;temperature;humidity
23079;DHT22;11707;50.830;4.364;2022-11-09T00:00:51;15.20;99.90
23079;DHT22;11707;50.830;4.364;2022-11-09T00:03:17;15.20;99.90
23079;DHT22;11707;50.830;4.364;2022-11-09T00:05:43;15.10;99.90
23079;DHT22;11707;50.830;4.364;2022-11-09T00:08:10;15.00;99.90
23079;DHT22;11707;50.830;4.364;2022-11-09T00:10:36;15.10;99.90
23079;DHT22;11707;50.830;4.364;2022-11-09T00:13:03;15.10;99.90
23079;DHT22;11707;50.830;4.364;2022-11-09T00:15:28;15.00;99.90
23079;DHT22;11707;50.830;4.364;2022-11-09T00:17:54;14.90;99.90
23079;DHT22;11707;50.830;4.364;2022-11-09T00:20:20;15.00;99.90
23079;DHT22;11707;50.830;4.364;2022-11-09T00:22:49;14.90;99.90
23079;DHT22;11707;50.830;4.364;2022-11-09T00:25:15;14.80;99.90
23079;DHT22;11707;50.830;4.364;2022-11-09T00:27:41;14.90;99.90
23079;DHT22;11707;50.830;4.364;2022-11-09T00:30:07;14.80;99.90
23079;DHT22;11707;50.830;4.364;2022-11-09T00:32:35;14.80;99.90
23079;DHT22;11707;50.830;4.364;2022-11-09T00:35:00;14.90;99.90
23079;DHT22;11707;50.830;4.364;2022-11-09T00:37:28;14.70;99.90
23079;DHT22;11707;50.830;4.364;2022-11-09T00:39:54;14.60;99.90
23079;DHT22;11707;50.830;4.364;2022-11-09T00:42:20;14.60;99.90
23079;DHT22;11707;50.830;4.364;2022-11-09T00:44:45;14.60;99.90
23079;DHT22;11707;50.830;4.364;2022-11-09T00:47:11;14.70;99.90
23079;DHT22;11707;50.830;4.364;2022-11-09T00:49:36;14.60;99.90
23079;DHT22;11707;50.830;4.364;2022-11-09T00:52:02;14.50;99.90
23079;DHT22;11707;50.830;4.364;2022-11-09T00:54:28;14.50;99.90
23079;DHT22;11707;50.830;4.364;2022-11-09T00:56:54;14.50;99.90
23079;DHT22;11707;50.830;4.364;2022-11-09T01:20:28;14.10;99.90
23079;DHT22;11707;50.830;4.364;2022-11-09T01:22:54;14.20;99.90
23079;DHT22;11707;50.830;4.364;2022-11-09T01:25:19;14.20;99.90
23079;DHT22;11707;50.830;4.364;2022-11-09T01:27:45;14.30;99.90
23079;DHT22;11707;50.830;4.364;2022-11-09T01:30:11;14.20;99.90
23079;DHT22;11707;50.830;4.364;2022-11-09T01:32:37;14.40;99.90
23079;DHT22;11707;50.830;4.364;2022-11-09T01:35:03;14.30;99.90
23079;DHT22;11707;50.830;4.364;2022-11-09T01:37:29;14.30;99.90
23079;DHT22;11707;50.830;4.364;2022-11-09T01:39:54;14.30;99.90
23079;DHT22;11707;50.830;4.364;2022-11-09T01:42:23;14.30;99.90
23079;DHT22;11707;50.830;4.364;2022-11-09T01:47:48;14.40;99.90
23079;DHT22;11707;50.830;4.364;2022-11-09T01:50:26;14.30;99.90
23079;DHT22;11707;50.830;4.364;2022-11-09T01:52:53;14.30;99.90
23079;DHT22;11707;50.830;4.364;2022-11-09T01:55:21;14.40;99.90
23079;DHT22;11707;50.830;4.364;2022-11-09T01:57:55;14.40;99.90
23079;DHT22;11707;50.830;4.364;2022-11-09T02:00:22;14.40;99.90
23079;DHT22;11707;50.830;4.364;2022-11-09T02:03:02;14.40;99.90
23079;DHT22;11707;50.830;4.364;2022-11-09T02:05:30;14.40;99.90
23079;DHT22;11707;50.830;4.364;2022-11-09T02:07:59;14.30;99.90
23079;DHT22;11707;50.830;4.364;2022-11-09T02:10:46;14.30;99.90
23079;DHT22;11707;50.830;4.364;2022-11-09T02:13:16;14.30;99.90
23079;DHT22;11707;50.830;4.364;2022-11-09T02:15:43;14.10;99.90
23079;DHT22;11707;50.830;4.364;2022-11-09T02:18:09;13.90;99.90
23079;DHT22;11707;50.830;4.364;2022-11-09T02:20:53;14.00;99.90
23079;DHT22;11707;50.830;4.364;2022-11-09T02:23:19;13.90;99.90
23079;DHT22;11707;50.830;4.364;2022-11-09T02:25:48;13.90;99.90
23079;DHT22;11707;50.830;4.364;2022-11-09T02:28:15;13.90;99.90
23079;DHT22;11707;50.830;4.364;2022-11-09T02:30:43;13.70;99.90
23079;DHT22;11707;50.830;4.364;2022-11-09T02:33:11;13.80;99.90
23079;DHT22;11707;50.830;4.364;2022-11-09T02:35:36;13.90;99.90
23079;DHT22;11707;50.830;4.364;2022-11-09T02:38:02;13.90;99.90
23079;DHT22;11707;50.830;4.364;2022-11-09T02:40:31;13.90;99.90
23079;DHT22;11707;50.830;4.364;2022-11-09T02:43:00;14.00;99.90
23079;DHT22;11707;50.830;4.364;2022-11-09T02:45:26;14.00;99.90
23079;DHT22;11707;50.830;4.364;2022-11-09T02:47:52;14.00;99.90
23079;DHT22;11707;50.830;4.364;2022-11-09T02:50:18;14.00;99.90
23079;DHT22;11707;50.830;4.364;2022-11-09T02:52:44;14.00;99.90
23079;DHT22;11707;50.830;4.364;2022-11-09T02:55:09;14.00;99.90
23079;DHT22;11707;50.830;4.364;2022-11-09T02:57:35;13.80;99.90
23079;DHT22;11707;50.830;4.364;2022-11-09T03:00:01;13.90;99.90
23079;DHT22;11707;50.830;4.364;2022-11-09T03:02:27;13.80;99.90
23079;DHT22;11707;50.830;4.364;2022-11-09T03:04:52;13.70;99.90
23079;DHT22;11707;50.830;4.364;2022-11-09T03:07:18;13.70;99.90
23079;DHT22;11707;50.830;4.364;2022-11-09T03:09:44;13.70;99.90
23079;DHT22;11707;50.830;4.364;2022-11-09T03:12:10;13.70;99.90
23079;DHT22;11707;50.830;4.364;2022-11-09T03:14:58;13.80;99.90
23079;DHT22;11707;50.830;4.364;2022-11-09T03:17:25;13.70;99.90
23079;DHT22;11707;50.830;4.364;2022-11-09T03:19:52;13.80;99.90
23079;DHT22;11707;50.830;4.364;2022-11-09T03:22:17;13.80;99.90
23079;DHT22;11707;50.830;4.364;2022-11-09T03:24:43;13.80;99.90
23079;DHT22;11707;50.830;4.364;2022-11-09T03:27:09;13.80;99.90
23079;DHT22;11707;50.830;4.364;2022-11-09T03:29:35;13.80;99.90
23079;DHT22;11707;50.830;4.364;2022-11-09T03:32:01;13.80;99.90
23079;DHT22;11707;50.830;4.364;2022-11-09T03:34:27;13.90;99.90
23079;DHT22;11707;50.830;4.364;2022-11-09T03:36:52;13.90;99.90
23079;DHT22;11707;50.830;4.364;2022-11-09T03:39:18;13.90;99.90
23079;DHT22;11707;50.830;4.364;2022-11-09T03:41:44;13.90;99.90
23079;DHT22;11707;50.830;4.364;2022-11-09T03:44:10;13.90;99.90
23079;DHT22;11707;50.830;4.364;2022-11-09T03:46:36;13.90;99.90
23079;DHT22;11707;50.830;4.364;2022-11-09T03:49:01;13.90;99.90
23079;DHT22;11707;50.830;4.364;2022-11-09T03:51:27;13.90;99.90
23079;DHT22;11707;50.830;4.364;2022-11-09T03:53:53;13.70;99.90
23079;DHT22;11707;50.830;4.364;2022-11-09T03:56:19;13.70;99.90
23079;DHT22;11707;50.830;4.364;2022-11-09T03:58:44;13.60;99.90
23079;DHT22;11707;50.830;4.364;2022-11-09T04:01:10;13.50;99.90
23079;DHT22;11707;50.830;4.364;2022-11-09T04:03:36;13.50;99.90
23079;DHT22;11707;50.830;4.364;2022-11-09T04:06:02;13.60;99.90
23079;DHT22;11707;50.830;4.364;2022-11-09T04:08:28;13.50;99.90
23079;DHT22;11707;50.830;4.364;2022-11-09T04:10:54;13.50;99.90
23079;DHT22;11707;50.830;4.364;2022-11-09T04:13:20;13.30;99.90
23079;DHT22;11707;50.830;4.364;2022-11-09T04:15:46;13.40;99.90
23079;DHT22;11707;50.830;4.364;2022-11-09T04:18:13;13.40;99.90
23079;DHT22;11707;50.830;4.364;2022-11-09T04:20:39;13.40;99.90
23079;DHT22;11707;50.830;4.364;2022-11-09T04:23:06;13.30;99.90
23079;DHT22;11707;50.830;4.364;2022-11-09T04:25:34;13.30;99.90
23079;DHT22;11707;50.830;4.364;2022-11-09T04:28:01;13.10;99.90
23079;DHT22;11707;50.830;4.364;2022-11-09T04:30:29;13.20;99.90
23079;DHT22;11707;50.830;4.364;2022-11-09T04:32:56;13.20;99.90
23079;DHT22;11707;50.830;4.364;2022-11-09T04:35:22;13.20;99.90
23079;DHT22;11707;50.830;4.364;2022-11-09T04:37:59;13.30;99.90
23079;DHT22;11707;50.830;4.364;2022-11-09T04:40:27;13.30;99.90
23079;DHT22;11707;50.830;4.364;2022-11-09T04:42:53;13.30;99.90
23079;DHT22;11707;50.830;4.364;2022-11-09T04:45:20;13.30;99.90
23079;DHT22;11707;50.830;4.364;2022-11-09T04:47:46;13.40;99.90
23079;DHT22;11707;50.830;4.364;2022-11-09T04:50:12;13.30;99.90
23079;DHT22;11707;50.830;4.364;2022-11-09T04:52:38;13.30;99.90
23079;DHT22;11707;50.830;4.364;2022-11-09T04:55:05;13.20;99.90
23079;DHT22;11707;50.830;4.364;2022-11-09T04:57:31;13.20;99.90
23079;DHT22;11707;50.830;4.364;2022-11-09T04:59:56;13.30;99.90
23079;DHT22;11707;50.830;4.364;2022-11-09T05:02:22;13.30;99.90
23079;DHT22;11707;50.830;4.364;2022-11-09T05:04:48;13.20;99.90
23079;DHT22;11707;50.830;4.364;2022-11-09T05:07:14;13.20;99.90
23079;DHT22;11707;50.830;4.364;2022-11-09T05:09:39;13.20;99.90
23079;DHT22;11707;50.830;4.364;2022-11-09T05:12:05;13.20;99.90
23079;DHT22;11707;50.830;4.364;2022-11-09T05:14:31;13.20;99.90
23079;DHT22;11707;50.830;4.364;2022-11-09T05:16:57;13.20;99.90
23079;DHT22;11707;50.830;4.364;2022-11-09T05:19:23;13.20;99.90
23079;DHT22;11707;50.830;4.364;2022-11-09T05:21:48;13.10;99.90
23079;DHT22;11707;50.830;4.364;2022-11-09T05:24:14;13.10;99.90
23079;DHT22;11707;50.830;4.364;2022-11-09T05:26:41;13.00;99.90
23079;DHT22;11707;50.830;4.364;2022-11-09T05:29:11;13.00;99.90
23079;DHT22;11707;50.830;4.364;2022-11-09T05:31:38;13.00;99.90
23079;DHT22;11707;50.830;4.364;2022-11-09T05:34:05;13.00;99.90
23079;DHT22;11707;50.830;4.364;2022-11-09T05:36:32;13.10;99.90
23079;DHT22;11707;50.830;4.364;2022-11-09T05:39:00;13.10;99.90
23079;DHT22;11707;50.830;4.364;2022-11-09T05:41:26;13.10;99.90
23079;DHT22;11707;50.830;4.364;2022-11-09T05:43:52;13.10;99.90
23079;DHT22;11707;50.830;4.364;2022-11-09T05:46:18;12.90;99.90
23079;DHT22;11707;50.830;4.364;2022-11-09T05:48:45;13.00;99.90
23079;DHT22;11707;50.830;4.364;2022-11-09T05:51:12;13.00;99.90
23079;DHT22;11707;50.830;4.364;2022-11-09T05:53:39;12.90;99.90
23079;DHT22;11707;50.830;4.364;2022-11-09T05:56:07;12.80;99.90
23079;DHT22;11707;50.830;4.364;2022-11-09T05:58:34;12.80;99.90
23079;DHT22;11707;50.830;4.364;2022-11-09T06:01:08;12.80;99.90
23079;DHT22;11707;50.830;4.364;2022-11-09T06:03:34;12.80;99.90
23079;DHT22;11707;50.830;4.364;2022-11-09T06:06:02;12.90;99.90
23079;DHT22;11707;50.830;4.364;2022-11-09T06:08:28;12.90;99.90
23079;DHT22;11707;50.830;4.364;2022-11-09T06:11:02;12.80;99.90
23079;DHT22;11707;50.830;4.364;2022-11-09T06:13:28;12.70;99.90
23079;DHT22;11707;50.830;4.364;2022-11-09T06:15:55;12.70;99.90
23079;DHT22;11707;50.830;4.364;2022-11-09T06:18:23;12.70;99.90
23079;DHT22;11707;50.830;4.364;2022-11-09T06:20:57;12.80;99.90
23079;DHT22;11707;50.830;4.364;2022-11-09T06:23:23;12.80;99.90
23079;DHT22;11707;50.830;4.364;2022-11-09T06:25:57;12.80;99.90
23079;DHT22;11707;50.830;4.364;2022-11-09T06:28:22;12.80;99.90
23079;DHT22;11707;50.830;4.364;2022-11-09T06:30:48;12.80;99.90
23079;DHT22;11707;50.830;4.364;2022-11-09T06:33:14;12.80;99.90
23079;DHT22;11707;50.830;4.364;2022-11-09T06:35:40;12.80;99.90
23079;DHT22;11707;50.830;4.364;2022-11-09T06:38:06;12.70;99.90
23079;DHT22;11707;50.830;4.364;2022-11-09T06:40:32;12.70;99.90
23079;DHT22;11707;50.830;4.364;2022-11-09T06:42:59;12.60;99.90
23079;DHT22;11707;50.830;4.364;2022-11-09T06:45:26;12.70;99.90
23079;DHT22;11707;50.830;4.364;2022-11-09T06:48:00;12.70;99.90
23079;DHT22;11707;50.830;4.364;2022-11-09T06:50:27;12.70;99.90
23079;DHT22;11707;50.830;4.364;2022-11-09T06:52:57;12.70;99.90
23079;DHT22;11707;50.830;4.364;2022-11-09T06:55:27;12.80;99.90
23079;DHT22;11707;50.830;4.364;2022-11-09T06:57:54;12.60;99.90
23079;DHT22;11707;50.830;4.364;2022-11-09T07:00:21;12.60;99.90
23079;DHT22;11707;50.830;4.364;2022-11-09T07:02:47;12.70;99.90
23079;DHT22;11707;50.830;4.364;2022-11-09T07:05:13;12.60;99.90
23079;DHT22;11707;50.830;4.364;2022-11-09T07:07:39;12.60;99.90
23079;DHT22;11707;50.830;4.364;2022-11-09T07:10:05;12.50;99.90
23079;DHT22;11707;50.830;4.364;2022-11-09T07:12:31;12.50;99.90
23079;DHT22;11707;50.830;4.364;2022-11-09T07:14:57;12.60;99.90
23079;DHT22;11707;50.830;4.364;2022-11-09T07:17:23;12.70;99.90
23079;DHT22;11707;50.830;4.364;2022-11-09T07:19:49;12.60;99.90
23079;DHT22;11707;50.830;4.364;2022-11-09T07:22:14;12.60;99.90
23079;DHT22;11707;50.830;4.364;2022-11-09T07:24:40;12.60;99.90
23079;DHT22;11707;50.830;4.364;2022-11-09T07:27:06;12.70;99.90
23079;DHT22;11707;50.830;4.364;2022-11-09T07:29:33;12.60;99.90
23079;DHT22;11707;50.830;4.364;2022-11-09T07:31:59;12.70;99.90
23079;DHT22;11707;50.830;4.364;2022-11-09T07:34:25;12.70;99.90
23079;DHT22;11707;50.830;4.364;2022-11-09T07:36:55;12.70;99.90
23079;DHT22;11707;50.830;4.364;2022-11-09T07:39:20;12.60;99.90
23079;DHT22;11707;50.830;4.364;2022-11-09T07:41:47;12.60;99.90
23079;DHT22;11707;50.830;4.364;2022-11-09T07:44:14;12.50;99.90
23079;DHT22;11707;50.830;4.364;2022-11-09T07:46:45;12.50;99.90
23079;DHT22;11707;50.830;4.364;2022-11-09T07:49:10;12.60;99.90
23079;DHT22;11707;50.830;4.364;2022-11-09T07:51:38;12.60;99.90
23079;DHT22;11707;50.830;4.364;2022-11-09T07:54:04;12.50;99.90
23079;DHT22;11707;50.830;4.364;2022-11-09T07:56:30;12.60;99.90
23079;DHT22;11707;50.830;4.364;2022-11-09T07:58:56;12.60;99.90
23079;DHT22;11707;50.830;4.364;2022-11-09T08:01:22;12.70;99.90
23079;DHT22;11707;50.830;4.364;2022-11-09T08:03:47;12.70;99.90
23079;DHT22;11707;50.830;4.364;2022-11-09T08:06:13;12.60;99.90
23079;DHT22;11707;50.830;4.364;2022-11-09T08:08:39;12.50;99.90
23079;DHT22;11707;50.830;4.364;2022-11-09T08:11:05;12.60;99.90
23079;DHT22;11707;50.830;4.364;2022-11-09T08:13:30;12.80;99.90
23079;DHT22;11707;50.830;4.364;2022-11-09T08:16:00;12.80;99.90
23079;DHT22;11707;50.830;4.364;2022-11-09T08:18:26;12.90;99.90
23079;DHT22;11707;50.830;4.364;2022-11-09T08:20:52;13.00;99.90
23079;DHT22;11707;50.830;4.364;2022-11-09T08:23:18;13.00;99.90
23079;DHT22;11707;50.830;4.364;2022-11-09T08:25:46;12.90;99.90
23079;DHT22;11707;50.830;4.364;2022-11-09T08:28:12;12.90;99.90
23079;DHT22;11707;50.830;4.364;2022-11-09T08:30:39;12.80;99.90
23079;DHT22;11707;50.830;4.364;2022-11-09T08:33:05;12.80;99.90
23079;DHT22;11707;50.830;4.364;2022-11-09T08:35:31;12.90;99.90
23079;DHT22;11707;50.830;4.364;2022-11-09T08:38:01;13.00;99.90
23079;DHT22;11707;50.830;4.364;2022-11-09T08:40:27;13.10;99.90
23079;DHT22;11707;50.830;4.364;2022-11-09T08:42:53;13.10;99.90
23079;DHT22;11707;50.830;4.364;2022-11-09T08:45:20;13.20;99.90
23079;DHT22;11707;50.830;4.364;2022-11-09T08:47:46;13.30;99.90
23079;DHT22;11707;50.830;4.364;2022-11-09T08:50:13;13.30;99.90
23079;DHT22;11707;50.830;4.364;2022-11-09T08:52:39;13.40;99.90
23079;DHT22;11707;50.830;4.364;2022-11-09T08:55:05;13.30;99.90
23079;DHT22;11707;50.830;4.364;2022-11-09T08:57:32;13.30;99.90
23079;DHT22;11707;50.830;4.364;2022-11-09T08:59:57;13.30;99.90
23079;DHT22;11707;50.830;4.364;2022-11-09T09:02:23;13.30;99.90
23079;DHT22;11707;50.830;4.364;2022-11-09T09:04:49;13.30;99.90
23079;DHT22;11707;50.830;4.364;2022-11-09T09:07:18;13.30;99.90
23079;DHT22;11707;50.830;4.364;2022-11-09T09:09:44;13.20;99.90
23079;DHT22;11707;50.830;4.364;2022-11-09T09:12:10;13.20;99.90
23079;DHT22;11707;50.830;4.364;2022-11-09T09:14:35;13.30;99.90
23079;DHT22;11707;50.830;4.364;2022-11-09T09:17:01;13.20;99.90
23079;DHT22;11707;50.830;4.364;2022-11-09T09:19:28;13.20;99.90
23079;DHT22;11707;50.830;4.364;2022-11-09T09:21:53;13.30;99.90
23079;DHT22;11707;50.830;4.364;2022-11-09T09:24:19;13.30;99.90
23079;DHT22;11707;50.830;4.364;2022-11-09T09:26:45;13.30;99.90
23079;DHT22;11707;50.830;4.364;2022-11-09T09:29:12;13.40;99.90
23079;DHT22;11707;50.830;4.364;2022-11-09T09:31:39;13.40;99.90
23079;DHT22;11707;50.830;4.364;2022-11-09T09:34:05;13.30;99.90
23079;DHT22;11707;50.830;4.364;2022-11-09T09:36:31;13.30;99.90
23079;DHT22;11707;50.830;4.364;2022-11-09T09:38:57;13.30;99.90
23079;DHT22;11707;50.830;4.364;2022-11-09T09:41:57;13.30;99.90
23079;DHT22;11707;50.830;4.364;2022-11-09T09:44:29;13.30;99.90
23079;DHT22;11707;50.830;4.364;2022-11-09T09:47:12;13.40;99.90
23079;DHT22;11707;50.830;4.364;2022-11-09T09:49:58;13.50;99.90
23079;DHT22;11707;50.830;4.364;2022-11-09T09:52:45;13.70;99.90
23079;DHT22;11707;50.830;4.364;2022-11-09T09:57:54;13.80;99.90
23079;DHT22;11707;50.830;4.364;2022-11-09T10:00:25;14.00;99.90
23079;DHT22;11707;50.830;4.364;2022-11-09T10:02:53;14.10;99.90
23079;DHT22;11707;50.830;4.364;2022-11-09T10:05:23;14.00;99.90
23079;DHT22;11707;50.830;4.364;2022-11-09T10:08:45;14.00;99.90
23079;DHT22;11707;50.830;4.364;2022-11-09T10:22:16;13.80;99.90
23079;DHT22;11707;50.830;4.364;2022-11-09T10:25:03;13.80;99.90
23079;DHT22;11707;50.830;4.364;2022-11-09T10:28:09;13.80;99.90
23079;DHT22;11707;50.830;4.364;2022-11-09T10:30:28;13.80;99.90
23079;DHT22;11707;50.830;4.364;2022-11-09T10:32:58;13.80;99.90
23079;DHT22;11707;50.830;4.364;2022-11-09T10:35:40;13.80;99.90
23079;DHT22;11707;50.830;4.364;2022-11-09T10:38:17;13.90;99.90
23079;DHT22;11707;50.830;4.364;2022-11-09T10:40:51;13.80;99.90
23079;DHT22;11707;50.830;4.364;2022-11-09T10:43:17;13.90;99.90
23079;DHT22;11707;50.830;4.364;2022-11-09T10:45:44;13.80;99.90
23079;DHT22;11707;50.830;4.364;2022-11-09T10:48:12;13.90;99.90
23079;DHT22;11707;50.830;4.364;2022-11-09T10:50:49;13.70;99.90
23079;DHT22;11707;50.830;4.364;2022-11-09T10:53:24;13.70;99.90
23079;DHT22;11707;50.830;4.364;2022-11-09T10:58:31;13.80;99.90
23079;DHT22;11707;50.830;4.364;2022-11-09T11:01:11;13.90;99.90
23079;DHT22;11707;50.830;4.364;2022-11-09T11:03:38;14.00;99.90
23079;DHT22;11707;50.830;4.364;2022-11-09T11:06:15;14.20;99.90
23079;DHT22;11707;50.830;4.364;2022-11-09T11:08:44;14.20;99.90
23079;DHT22;11707;50.830;4.364;2022-11-09T11:13:45;13.80;99.90
23079;DHT22;11707;50.830;4.364;2022-11-09T11:18:50;14.00;99.90
23079;DHT22;11707;50.830;4.364;2022-11-09T11:21:18;14.10;99.90
23079;DHT22;11707;50.830;4.364;2022-11-09T11:32:14;13.80;99.90
23079;DHT22;11707;50.830;4.364;2022-11-09T11:34:40;13.60;99.90
23079;DHT22;11707;50.830;4.364;2022-11-09T11:40:07;13.40;99.90
23079;DHT22;11707;50.830;4.364;2022-11-09T11:45:41;13.60;99.90
23079;DHT22;11707;50.830;4.364;2022-11-09T11:48:20;13.60;99.90
23079;DHT22;11707;50.830;4.364;2022-11-09T11:51:30;13.70;99.90
23079;DHT22;11707;50.830;4.364;2022-11-09T11:59:41;13.90;99.90
23079;DHT22;11707;50.830;4.364;2022-11-09T12:01:47;14.00;99.90
23079;DHT22;11707;50.830;4.364;2022-11-09T12:24:48;11.90;99.90
23079;DHT22;11707;50.830;4.364;2022-11-09T12:30:21;11.50;99.90
23079;DHT22;11707;50.830;4.364;2022-11-09T12:33:02;11.40;99.90
23079;DHT22;11707;50.830;4.364;2022-11-09T12:35:32;11.40;99.90
23079;DHT22;11707;50.830;4.364;2022-11-09T12:38:23;11.60;99.90
23079;DHT22;11707;50.830;4.364;2022-11-09T12:40:56;11.70;99.90
23079;DHT22;11707;50.830;4.364;2022-11-09T12:43:31;11.70;99.90
23079;DHT22;11707;50.830;4.364;2022-11-09T12:46:00;11.90;99.90
23079;DHT22;11707;50.830;4.364;2022-11-09T12:48:31;12.00;99.90
23079;DHT22;11707;50.830;4.364;2022-11-09T12:50:59;12.20;99.90
23079;DHT22;11707;50.830;4.364;2022-11-09T12:53:29;12.20;99.90
23079;DHT22;11707;50.830;4.364;2022-11-09T12:58:27;12.30;99.90
23079;DHT22;11707;50.830;4.364;2022-11-09T13:00:56;12.40;99.90
23079;DHT22;11707;50.830;4.364;2022-11-09T13:03:30;12.60;99.90
23079;DHT22;11707;50.830;4.364;2022-11-09T13:08:36;12.90;99.90
23079;DHT22;11707;50.830;4.364;2022-11-09T13:11:17;13.00;99.90
23079;DHT22;11707;50.830;4.364;2022-11-09T13:13:44;13.30;99.90
23079;DHT22;11707;50.830;4.364;2022-11-09T13:23:52;13.60;99.90
23079;DHT22;11707;50.830;4.364;2022-11-09T13:32:01;13.80;99.90
23079;DHT22;11707;50.830;4.364;2022-11-09T13:34:55;14.10;99.90
23079;DHT22;11707;50.830;4.364;2022-11-09T13:37:45;14.40;99.90
23079;DHT22;11707;50.830;4.364;2022-11-09T13:51:10;13.90;99.90
23079;DHT22;11707;50.830;4.364;2022-11-09T13:56:31;13.90;99.90
23079;DHT22;11707;50.830;4.364;2022-11-09T13:59:17;13.80;99.90
23079;DHT22;11707;50.830;4.364;2022-11-09T14:01:48;13.70;99.90
23079;DHT22;11707;50.830;4.364;2022-11-09T14:04:38;13.70;99.90
23079;DHT22;11707;50.830;4.364;2022-11-09T14:15:21;13.70;99.90
23079;DHT22;11707;50.830;4.364;2022-11-09T14:20:39;13.50;99.90
23079;DHT22;11707;50.830;4.364;2022-11-09T14:23:29;13.50;99.90
23079;DHT22;11707;50.830;4.364;2022-11-09T14:25:55;13.20;99.90
23079;DHT22;11707;50.830;4.364;2022-11-09T14:28:25;13.10;99.90
23079;DHT22;11707;50.830;4.364;2022-11-09T14:30:52;12.90;99.90
23079;DHT22;11707;50.830;4.364;2022-11-09T14:35:46;12.90;99.90
23079;DHT22;11707;50.830;4.364;2022-11-09T14:38:27;13.00;99.90
23079;DHT22;11707;50.830;4.364;2022-11-09T14:40:53;12.90;99.90
23079;DHT22;11707;50.830;4.364;2022-11-09T14:43:41;12.90;99.90
23079;DHT22;11707;50.830;4.364;2022-11-09T14:46:19;12.90;99.90
23079;DHT22;11707;50.830;4.364;2022-11-09T14:48:53;12.90;99.90
23079;DHT22;11707;50.830;4.364;2022-11-09T14:51:20;12.90;99.90
23079;DHT22;11707;50.830;4.364;2022-11-09T14:53:48;13.00;99.90
23079;DHT22;11707;50.830;4.364;2022-11-09T14:56:17;12.90;99.90
23079;DHT22;11707;50.830;4.364;2022-11-09T14:58:44;13.10;99.90
23079;DHT22;11707;50.830;4.364;2022-11-09T15:03:43;13.20;99.90
23079;DHT22;11707;50.830;4.364;2022-11-09T15:06:16;13.20;99.90
23079;DHT22;11707;50.830;4.364;2022-11-09T15:08:55;13.30;99.90
23079;DHT22;11707;50.830;4.364;2022-11-09T15:11:33;13.20;99.90
23079;DHT22;11707;50.830;4.364;2022-11-09T15:14:13;13.30;99.90
23079;DHT22;11707;50.830;4.364;2022-11-09T15:16:39;13.20;99.90
23079;DHT22;11707;50.830;4.364;2022-11-09T15:19:14;13.20;99.90
23079;DHT22;11707;50.830;4.364;2022-11-09T15:21:43;13.20;99.90
23079;DHT22;11707;50.830;4.364;2022-11-09T15:26:44;13.30;99.90
23079;DHT22;11707;50.830;4.364;2022-11-09T15:29:43;13.30;99.90
23079;DHT22;11707;50.830;4.364;2022-11-09T15:37:27;13.10;99.90
23079;DHT22;11707;50.830;4.364;2022-11-09T15:39:54;13.10;99.90
23079;DHT22;11707;50.830;4.364;2022-11-09T15:42:20;12.90;99.90
23079;DHT22;11707;50.830;4.364;2022-11-09T15:44:51;13.00;99.90
23079;DHT22;11707;50.830;4.364;2022-11-09T15:47:35;12.90;99.90
23079;DHT22;11707;50.830;4.364;2022-11-09T15:50:14;12.80;99.90
23079;DHT22;11707;50.830;4.364;2022-11-09T15:52:40;12.80;99.90
23079;DHT22;11707;50.830;4.364;2022-11-09T15:55:15;12.80;99.90
23079;DHT22;11707;50.830;4.364;2022-11-09T15:57:42;12.60;99.90
23079;DHT22;11707;50.830;4.364;2022-11-09T16:00:12;12.60;99.90
23079;DHT22;11707;50.830;4.364;2022-11-09T16:02:38;12.60;99.90
23079;DHT22;11707;50.830;4.364;2022-11-09T16:05:04;12.70;99.90
23079;DHT22;11707;50.830;4.364;2022-11-09T16:07:30;12.70;99.90
23079;DHT22;11707;50.830;4.364;2022-11-09T16:09:56;12.80;99.90
23079;DHT22;11707;50.830;4.364;2022-11-09T16:12:22;12.80;99.90
23079;DHT22;11707;50.830;4.364;2022-11-09T16:14:48;12.80;99.90
23079;DHT22;11707;50.830;4.364;2022-11-09T16:17:13;12.80;99.90
23079;DHT22;11707;50.830;4.364;2022-11-09T16:19:39;12.80;99.90
23079;DHT22;11707;50.830;4.364;2022-11-09T16:22:07;12.70;99.90
23079;DHT22;11707;50.830;4.364;2022-11-09T16:24:33;12.70;99.90
23079;DHT22;11707;50.830;4.364;2022-11-09T16:26:59;12.60;99.90
23079;DHT22;11707;50.830;4.364;2022-11-09T16:29:27;12.50;99.90
23079;DHT22;11707;50.830;4.364;2022-11-09T16:31:53;12.50;99.90
23079;DHT22;11707;50.830;4.364;2022-11-09T16:34:19;12.40;99.90
23079;DHT22;11707;50.830;4.364;2022-11-09T16:36:45;12.40;99.90
23079;DHT22;11707;50.830;4.364;2022-11-09T16:39:11;12.40;99.90
23079;DHT22;11707;50.830;4.364;2022-11-09T16:41:45;12.40;99.90
23079;DHT22;11707;50.830;4.364;2022-11-09T16:44:13;12.40;99.90
23079;DHT22;11707;50.830;4.364;2022-11-09T16:46:42;12.40;99.90
23079;DHT22;11707;50.830;4.364;2022-11-09T16:49:08;12.30;99.90
23079;DHT22;11707;50.830;4.364;2022-11-09T16:51:34;12.30;99.90
23079;DHT22;11707;50.830;4.364;2022-11-09T16:53:59;12.30;99.90
23079;DHT22;11707;50.830;4.364;2022-11-09T16:56:25;12.30;99.90
23079;DHT22;11707;50.830;4.364;2022-11-09T16:58:51;12.30;99.90
23079;DHT22;11707;50.830;4.364;2022-11-09T17:01:17;12.30;99.90
23079;DHT22;11707;50.830;4.364;2022-11-09T17:03:43;12.30;99.90
23079;DHT22;11707;50.830;4.364;2022-11-09T17:06:09;12.40;99.90
23079;DHT22;11707;50.830;4.364;2022-11-09T17:08:40;12.50;99.90
23079;DHT22;11707;50.830;4.364;2022-11-09T17:11:10;12.60;99.90
23079;DHT22;11707;50.830;4.364;2022-11-09T17:13:37;12.60;99.90
23079;DHT22;11707;50.830;4.364;2022-11-09T17:16:06;12.50;99.90
23079;DHT22;11707;50.830;4.364;2022-11-09T17:18:32;12.50;99.90
23079;DHT22;11707;50.830;4.364;2022-11-09T17:20:58;12.50;99.90
23079;DHT22;11707;50.830;4.364;2022-11-09T17:23:24;12.50;99.90
23079;DHT22;11707;50.830;4.364;2022-11-09T17:25:55;12.50;99.90
23079;DHT22;11707;50.830;4.364;2022-11-09T17:28:20;12.50;99.90
23079;DHT22;11707;50.830;4.364;2022-11-09T17:30:46;12.50;99.90
23079;DHT22;11707;50.830;4.364;2022-11-09T17:33:12;12.40;99.90
23079;DHT22;11707;50.830;4.364;2022-11-09T17:35:37;12.40;99.90
23079;DHT22;11707;50.830;4.364;2022-11-09T17:38:04;12.30;99.90
23079;DHT22;11707;50.830;4.364;2022-11-09T17:40:30;12.30;99.90
23079;DHT22;11707;50.830;4.364;2022-11-09T17:42:55;12.30;99.90
23079;DHT22;11707;50.830;4.364;2022-11-09T17:45:22;12.30;99.90
23079;DHT22;11707;50.830;4.364;2022-11-09T17:47:47;12.40;99.90
23079;DHT22;11707;50.830;4.364;2022-11-09T17:50:13;12.30;99.90
23079;DHT22;11707;50.830;4.364;2022-11-09T17:52:39;12.30;99.90
23079;DHT22;11707;50.830;4.364;2022-11-09T17:55:05;12.20;99.90
23079;DHT22;11707;50.830;4.364;2022-11-09T17:57:31;12.20;99.90
23079;DHT22;11707;50.830;4.364;2022-11-09T17:59:57;12.20;99.90
23079;DHT22;11707;50.830;4.364;2022-11-09T18:02:24;12.20;99.90
23079;DHT22;11707;50.830;4.364;2022-11-09T18:04:49;12.20;99.90